NZCH-NZWN ANZ382

Taken screenshots or videos on your virtual flights in VATNZ Airspace. Feel free to share them here.

Moderator: VATNZ Board Member

Forum rules
All images/videos in this forum are user-generated, and depict scenes and activities that have taken place online in the VATSIM network.

VATNZ is in no way affiliated with any real-world airlines, organisations, or other entities that may appear in these images/videos.

The trademarks of any airlines or organisations depicted within these images/videos remain the property of the real-world rights holders.
Post Reply
Message
Author
Brodie Murdoch
Posts: 293
Joined: Tue Nov 11, 2014 12:57 am
VATSIM ID: 1306312
Location: Queenstown, New Zealand (NZQN)

NZCH-NZWN ANZ382

#1 Post by Brodie Murdoch » Fri Jun 23, 2017 2:48 pm

Christchurch's Impact to GSX (Cant start engines til push back completed due to icing conditions)

NZCH 230230Z AUTO 24014KT 4100 -RA BR OVC006/// 07/06 Q1009 TEMPO 4000 RADZ

NZCH 230235Z 2302/2400 22010KT 9999 -RA BKN008 TEMPO 2302/2308 4000 RADZ BKN004 BECMG 2306/2308 BKN018 TEMPO 2308/2314 6000 SHRA BKN008 TEMPO 2314/2320 6000 SHRA

Image
Brodie Murdoch (1306312)
Visiting C1 Controller | Oceanic Endorsed
Deputy Division Director | AFV Facility Engineer
VATSIM West Asia Division

Post Reply